CYVK1: Verdigris River, Coyville, KS

                                SHEF ID:       CYVK1     VERDIGRIS R NR COYVILLE, KS
STATION TYPE:
Regulating: Stage = 26.00, Flow = 10360

PRECIP STAGE RIV-FLOW VOLTAGE BAT-LOAD
in ft cfs volt volt
Ccp-Rev Ccp-Rev Ccp-Rev Ccp-Rev Ccp-Rev
(America/Chicago)
03/03 00:00 0.00 4.38 372 12.78 12.50
03/03 01:00 0.00 4.39 374 12.76 12.47
03/03 02:00 0.00 4.38 372 12.73 12.45
03/03 03:00 0.00 4.40 375 12.70 12.43
03/03 04:00 0.00 4.38 372 12.68 12.40
03/03 05:00 0.00 4.39 374 12.65 12.37
03/03 06:00 0.00 4.39 374 12.64 12.35
03/03 07:00 0.00 4.40 375 12.63 12.34
03/03 08:00 0.00 4.40 375 12.74 12.38
03/03 09:00 0.00 4.40 375 13.51 12.88
03/03 10:00 0.00 4.38 372 14.21 13.59
03/03 11:00 0.00 4.41 376 14.27 13.53
03/03 12:00 0.00 4.39 374 13.81 13.31
03/03 13:00 0.00 4.38 372 13.82 13.13
03/03 14:00 0.00 4.39 374 13.88 13.06
03/03 15:00 0.00 4.38 372 13.93 13.08
03/03 16:00 0.00 4.38 372 13.99 13.11
03/03 17:00 0.00 4.39 374 13.86 13.13
03/03 18:00 0.00 4.39 374 13.22 13.03
03/03 19:00 0.00 4.39 374 12.99 12.78
03/03 20:00 0.00 4.40 375 12.89 12.64
03/03 21:00 0.00 4.38 372 12.84 12.58
03/03 22:00 0.00 4.39 374 12.82 12.55
03/03 23:00 0.00 4.37 371 12.80 12.53
Data processed at Wed 04Mar2026 05:42 GMT

NOTICE: If you are parsing this page

Please convert to using our Data API. Starting early 2026 we will be migrating to: https://water.usace.army.mil with modern pages rendered in JavaScript. When this migration completes you will no longer be able to scrape this page! CWMSDataAPI (CDA)

Timeseries IDs (TSIDs)

TSIDs used from left to right in the data table
COYV.Precip-Inc.Total.1Hour.1Hour.Ccp-Rev
COYV.Stage.Inst.1Hour.0.Ccp-Rev
COYV.Flow.Inst.1Hour.0.Ccp-Rev
COYV.Volt-Battery.Inst.1Hour.0.Ccp-Rev
COYV.Volt-Battery Load.Inst.1Hour.0.Ccp-Rev

                            

All information presented herein is the property of the government of the United States of America and may be revised or deleted at any time without prior notice. Dissemination of this information without the expressed written consent of the Public Affairs Office, Tulsa District U.S. Army Corps of Engineers is strictly prohibited. These data are gathered electronically and, as presented, have NOT undergone any form of quality control. These data are NOT guaranteed to be valid or correct.